Terminal Aerodrome Forecast
Issued by NWS Twin Cities, MN

Home | Current Version | Previous Version | Text Only | Print | Product List | Glossary On
Versions: 1 2 3 4 5 6 7 8 9 10 11 12 13 14 15 16 17 18 19 20 21 22 23 24 25
632
FTUS43 KMPX 061744
TAFMSP
TAF
KMSP 061744Z 0618/0724 24015G23KT P6SM FEW100 FEW250
     FM062300 27014G22KT P6SM VCSH SCT120 BKN250
      TEMPO 0623/0701 6SM -TSRA BKN070CB
     FM070200 33013KT P6SM SCT120
     FM071000 35007KT P6SM SKC
     FM071700 34013G20KT P6SM FEW200=

USA.gov is the U.S. government's official web portal to all federal, state and local government web resources and services.